createdAt,value
2019-03-23T00:02:43.611Z,101262.86
2019-03-23T00:07:47.074Z,101260.87
2019-03-23T00:12:50.541Z,101257.88
2019-03-23T00:17:54.001Z,101249.94
2019-03-23T00:22:57.475Z,101250.93
2019-03-23T00:28:00.997Z,101246.79
2019-03-23T00:33:04.478Z,101248.20
2019-03-23T00:38:07.940Z,101242.65
2019-03-23T00:43:11.407Z,101240.27
2019-03-23T00:48:14.870Z,101225.78
2019-03-23T00:53:18.584Z,101226.80
2019-03-23T00:58:22.213Z,101191.52
2019-03-23T01:03:25.689Z,101217.64
2019-03-23T01:08:29.177Z,101212.48
2019-03-23T01:13:32.641Z,101210.30
2019-03-23T01:18:36.124Z,101210.14
2019-03-23T01:23:39.627Z,101212.13
2019-03-23T01:28:43.085Z,101198.63
2019-03-23T01:33:46.544Z,101190.70
2019-03-23T01:38:50.012Z,101199.63
2019-03-23T01:43:53.476Z,101195.06
2019-03-23T01:48:56.941Z,101190.30
2019-03-23T01:54:00.401Z,101196.08
2019-03-23T01:59:03.878Z,101188.34
2019-03-23T02:04:07.342Z,101195.28
2019-03-23T02:09:10.805Z,101200.64
2019-03-23T02:14:14.320Z,101199.25
2019-03-23T02:19:17.782Z,101194.89
2019-03-23T02:24:21.246Z,101190.52
2019-03-23T02:29:24.758Z,101193.09
2019-03-23T02:34:28.219Z,101190.32
2019-03-23T02:39:31.691Z,101189.53
2019-03-23T02:44:35.156Z,101182.22
2019-03-23T02:49:38.620Z,101177.46
2019-03-23T02:54:42.085Z,101182.02
2019-03-23T02:59:45.566Z,101186.19
2019-03-23T03:04:49.027Z,101186.98
2019-03-23T03:09:52.588Z,101184.00
2019-03-23T03:14:56.038Z,101181.02
2019-03-23T03:19:59.497Z,101175.87
2019-03-23T03:25:03.177Z,101173.30
2019-03-23T03:30:09.021Z,101171.11
2019-03-23T03:35:12.662Z,101174.28
2019-03-23T03:40:16.367Z,101171.34
2019-03-23T03:45:27.510Z,101178.28
2019-03-23T03:50:31.109Z,101164.99
2019-03-23T03:55:34.573Z,101156.67
2019-03-23T04:00:38.038Z,101154.69
2019-03-23T04:05:41.573Z,101160.83
2019-03-23T04:10:45.118Z,101169.16
2019-03-23T04:15:48.582Z,101162.81
2019-03-23T04:20:52.044Z,101157.66
2019-03-23T04:25:55.508Z,101160.23
2019-03-23T04:30:58.991Z,101164.59
2019-03-23T04:36:02.465Z,101167.97
2019-03-23T04:41:05.933Z,101162.81
2019-03-23T04:46:09.393Z,101166.97
2019-03-23T04:51:12.856Z,101163.80
2019-03-23T04:56:16.318Z,101161.81
2019-03-23T05:01:19.777Z,101164.42
2019-03-23T05:06:23.415Z,101161.02
2019-03-23T05:11:26.886Z,101157.84
2019-03-23T05:16:30.345Z,101158.24
2019-03-23T05:21:35.317Z,101161.45
2019-03-23T05:26:38.780Z,101164.22
2019-03-23T05:31:42.240Z,101170.36
2019-03-23T05:36:45.700Z,101168.77
2019-03-23T05:41:49.160Z,101174.53
2019-03-23T05:46:54.387Z,101170.73
2019-03-23T05:51:57.838Z,101164.81
2019-03-23T05:57:01.302Z,101168.98
2019-03-23T06:02:04.781Z,101166.80
2019-03-23T06:07:08.244Z,101166.80
2019-03-23T06:12:11.715Z,101174.53
2019-03-23T06:17:15.198Z,101175.91
2019-03-23T06:22:18.676Z,101168.18
2019-03-23T06:27:22.136Z,101175.71
2019-03-23T06:32:25.602Z,101169.37
2019-03-23T06:37:29.072Z,101173.94
2019-03-23T06:42:32.530Z,101174.33
2019-03-23T06:47:35.997Z,101171.55
2019-03-23T06:52:39.528Z,101175.91
2019-03-23T06:57:42.995Z,101180.27
2019-03-23T07:02:46.849Z,101180.08
2019-03-23T07:07:50.314Z,101181.47
2019-03-23T07:12:53.788Z,101182.44
2019-03-23T07:17:57.239Z,101182.41
2019-03-23T07:23:00.704Z,101178.63
2019-03-23T07:28:04.231Z,101185.94
2019-03-23T07:33:07.693Z,101187.73
2019-03-23T07:38:11.153Z,101178.38
2019-03-23T07:43:14.623Z,101180.73
2019-03-23T07:48:18.074Z,101184.30
2019-03-23T07:53:21.562Z,101173.59
2019-03-23T07:58:25.029Z,101177.13
2019-03-23T08:03:28.494Z,101177.13
2019-03-23T08:08:31.957Z,101169.70
2019-03-23T08:13:35.420Z,101174.39
2019-03-23T08:18:38.881Z,101182.66
2019-03-23T08:23:42.341Z,101180.43
2019-03-23T08:28:45.804Z,101183.78
2019-03-23T08:33:49.264Z,101186.91
2019-03-23T08:38:52.733Z,101188.69
2019-03-23T08:43:56.185Z,101188.86
2019-03-23T08:48:59.648Z,101185.06
2019-03-23T08:54:03.111Z,101174.51
2019-03-23T08:59:06.585Z,101178.45
2019-03-23T09:04:10.043Z,101175.66
2019-03-23T09:09:13.510Z,101177.20
2019-03-23T09:14:16.972Z,101175.39
2019-03-23T09:19:20.450Z,101181.92
2019-03-23T09:24:23.978Z,101175.94
2019-03-23T09:29:27.436Z,101179.30
2019-03-23T09:34:30.898Z,101186.25
2019-03-23T09:39:34.358Z,101183.67
2019-03-23T09:44:37.818Z,101185.26
2019-03-23T09:49:41.280Z,101187.44
2019-03-23T09:54:44.740Z,101187.61
2019-03-23T09:59:48.209Z,101186.02
2019-03-23T10:04:51.696Z,101183.78
2019-03-23T10:15:26.275Z,101188.91
2019-03-23T10:20:29.739Z,101190.71
2019-03-23T10:25:33.230Z,101189.32
2019-03-23T10:30:36.686Z,101192.50
2019-03-23T10:35:40.161Z,101186.10
2019-03-23T10:40:43.624Z,101186.10
2019-03-23T10:45:47.100Z,101179.55
2019-03-23T10:50:50.600Z,101178.94
2019-03-23T10:55:54.100Z,101172.77
2019-03-23T11:06:24.309Z,101177.11
2019-03-23T11:11:27.785Z,101168.17
2019-03-23T11:16:31.271Z,101162.01
2019-03-23T11:21:34.757Z,101164.59
2019-03-23T11:26:38.244Z,101165.98
2019-03-23T11:31:41.774Z,101168.56
2019-03-23T11:36:45.258Z,101163.77
2019-03-23T11:41:48.741Z,101163.13
2019-03-23T11:46:52.255Z,101166.72
2019-03-23T11:51:55.724Z,101154.80
2019-03-23T11:56:59.209Z,101147.30
2019-03-23T12:02:02.705Z,101156.38
2019-03-23T12:07:06.220Z,101149.42
2019-03-23T12:12:09.720Z,101144.41
2019-03-23T12:17:13.180Z,101132.92
2019-03-23T12:22:16.671Z,101135.52
2019-03-23T12:27:20.170Z,101130.55
2019-03-23T12:37:30.340Z,101131.15
2019-03-23T12:42:33.821Z,101128.77
2019-03-23T12:47:37.309Z,101131.60
2019-03-23T13:25:40.352Z,101128.74
2019-03-23T13:30:43.834Z,101135.05
2019-03-23T13:35:47.321Z,101135.25
2019-03-23T13:40:50.871Z,101130.28
2019-03-23T13:45:54.358Z,101137.03
2019-03-23T13:50:57.843Z,101129.88
2019-03-23T13:56:01.326Z,101140.80
2019-03-23T14:01:04.816Z,101140.20
2019-03-23T14:06:08.303Z,101137.78
2019-03-23T14:11:11.789Z,101144.37
2019-03-23T14:16:15.275Z,101144.53
2019-03-23T14:21:18.768Z,101141.95
2019-03-23T14:26:22.261Z,101142.55
2019-03-23T14:31:25.742Z,101146.72
2019-03-23T14:36:29.228Z,101151.08
2019-03-23T15:09:07.434Z,101184.39
2019-03-23T15:14:10.902Z,101190.95
2019-03-23T15:19:15.616Z,101188.77
2019-03-23T15:24:19.320Z,101201.68
2019-03-23T15:29:22.818Z,101206.45
2019-03-23T15:34:26.295Z,101197.15
2019-03-23T15:39:29.757Z,101205.05
2019-03-23T15:44:33.221Z,101211.41
2019-03-23T15:49:36.678Z,101221.75
2019-03-23T15:54:40.148Z,101229.49
2019-03-23T15:59:43.619Z,101228.70
2019-03-23T16:04:47.085Z,101238.23
2019-03-23T16:09:50.553Z,101236.68
2019-03-23T16:14:54.013Z,101238.07
2019-03-23T16:19:57.472Z,101242.41
2019-03-23T16:25:00.943Z,101246.81
2019-03-23T16:30:10.315Z,101250.39
2019-03-23T16:35:13.903Z,101251.78
2019-03-23T16:40:17.375Z,101255.35
2019-03-23T16:45:21.013Z,101263.50
2019-03-23T16:50:24.483Z,101266.89
2019-03-23T16:55:27.955Z,101273.47
2019-03-23T17:00:36.015Z,101280.03
2019-03-23T17:05:39.494Z,101283.61
2019-03-23T17:10:42.966Z,101290.20
2019-03-23T17:15:46.464Z,101281.27
2019-03-23T17:20:49.888Z,101284.81
2019-03-23T17:25:53.354Z,101295.38
2019-03-23T17:30:56.865Z,101299.34
2019-03-23T17:36:00.329Z,101309.23
2019-03-23T17:41:03.794Z,101310.98
2019-03-23T17:46:07.261Z,101319.92
2019-03-23T17:51:10.729Z,101333.03
2019-03-23T17:56:14.202Z,101337.63
2019-03-23T18:01:19.720Z,101347.13
2019-03-23T18:06:23.089Z,101353.66
2019-03-23T18:11:26.549Z,101362.00
2019-03-23T18:16:30.007Z,101367.16
2019-03-23T18:21:33.479Z,101378.25
2019-03-23T18:26:36.942Z,101380.23
2019-03-23T18:31:40.427Z,101394.73
2019-03-23T18:36:44.229Z,101398.12
2019-03-23T18:41:47.688Z,101410.84
2019-03-23T18:46:51.149Z,101426.16
2019-03-23T18:51:54.607Z,101433.91
2019-03-23T18:56:58.072Z,101435.50
2019-03-23T19:02:01.535Z,101436.89
2019-03-23T19:07:06.276Z,101446.43
2019-03-23T19:12:09.741Z,101444.24
2019-03-23T19:17:13.202Z,101453.78
2019-03-23T19:22:16.666Z,101452.39
2019-03-23T19:27:20.131Z,101452.19
2019-03-23T19:32:23.586Z,101466.70
2019-03-23T19:37:27.047Z,101476.82
2019-03-23T19:42:30.507Z,101466.12
2019-03-23T19:47:33.969Z,101473.89
2019-03-23T19:52:37.435Z,101476.28
2019-03-23T19:57:40.888Z,101486.80
2019-03-23T20:02:44.518Z,101492.16
2019-03-23T20:07:47.975Z,101492.58
2019-03-23T20:12:51.616Z,101501.92
2019-03-23T20:17:55.049Z,101502.91
2019-03-23T20:22:58.514Z,101508.86
2019-03-23T20:28:01.972Z,101512.80
2019-03-23T20:33:05.431Z,101518.98
2019-03-23T20:38:08.890Z,101516.20
2019-03-23T20:43:12.348Z,101518.97
2019-03-23T20:48:17.247Z,101511.82
2019-03-23T20:53:20.880Z,101513.61
2019-03-23T20:58:24.340Z,101513.83
2019-03-23T21:03:27.799Z,101515.02
2019-03-23T21:08:32.553Z,101513.22
2019-03-23T21:13:36.017Z,101511.43
2019-03-23T21:18:39.483Z,101509.67
2019-03-23T21:23:42.945Z,101510.27
2019-03-23T21:28:46.403Z,101503.50
2019-03-23T21:33:49.864Z,101502.50
2019-03-23T21:38:53.322Z,101495.19
2019-03-23T21:43:56.788Z,101492.80
2019-03-23T21:49:00.249Z,101498.36
2019-03-23T21:54:03.724Z,101493.98
2019-03-23T21:59:07.182Z,101488.82
2019-03-23T22:04:10.647Z,101481.08
2019-03-23T22:09:14.119Z,101483.45
2019-03-23T22:14:17.592Z,101460.06
2019-03-23T22:19:21.109Z,101460.06
2019-03-23T22:24:24.582Z,101476.13
2019-03-23T22:29:28.043Z,101477.31
2019-03-23T22:34:31.499Z,101477.70
2019-03-23T22:39:34.960Z,101473.34
2019-03-23T22:44:38.425Z,101466.98
2019-03-23T22:49:41.883Z,101475.32
2019-03-23T22:54:45.351Z,101468.97
2019-03-23T22:59:48.812Z,101464.00
2019-03-23T23:04:52.450Z,101468.80
2019-03-23T23:09:55.908Z,101452.52
2019-03-23T23:15:04.288Z,101445.58
2019-03-23T23:20:06.712Z,101448.15
2019-03-23T23:25:10.338Z,101443.19
2019-03-23T23:30:14.537Z,101445.97
2019-03-23T23:35:18.000Z,101439.61
2019-03-23T23:40:21.462Z,101431.88
2019-03-23T23:45:24.927Z,101428.30
2019-03-23T23:50:28.384Z,101434.05
2019-03-23T23:55:31.845Z,101440.20
